createdAt,value
2022-09-30T00:00:02.798Z,15.3
2022-09-30T00:01:03.392Z,14.7
2022-09-30T00:02:04.025Z,16.1
2022-09-30T00:03:04.616Z,15.7
2022-09-30T00:04:05.198Z,15.2
2022-09-30T00:05:05.786Z,14.9
2022-09-30T00:06:08.830Z,15.3
2022-09-30T00:07:06.988Z,15.0
2022-09-30T00:08:07.600Z,14.3
2022-09-30T00:09:08.240Z,13.9
2022-09-30T00:10:08.793Z,14.4
2022-09-30T00:11:09.390Z,14.8
2022-09-30T00:12:09.982Z,14.3
2022-09-30T00:13:10.579Z,14.3
2022-09-30T00:14:11.173Z,14.4
2022-09-30T00:15:11.767Z,14.5
2022-09-30T00:16:12.412Z,13.9
2022-09-30T00:17:12.980Z,14.0
2022-09-30T00:18:13.575Z,13.6
2022-09-30T00:19:14.169Z,14.0
2022-09-30T00:20:14.766Z,13.5
2022-09-30T00:21:15.356Z,13.9
2022-09-30T00:22:15.950Z,14.4
2022-09-30T00:23:16.547Z,13.8
2022-09-30T00:24:17.137Z,15.0
2022-09-30T00:25:17.734Z,15.2
2022-09-30T00:26:18.327Z,15.3
2022-09-30T00:27:18.923Z,14.7
2022-09-30T00:28:19.515Z,16.5
2022-09-30T00:29:20.149Z,15.8
2022-09-30T00:30:20.748Z,15.1
2022-09-30T00:31:21.432Z,16.1
2022-09-30T00:32:22.006Z,15.5
2022-09-30T00:33:22.603Z,14.8
2022-09-30T00:34:23.194Z,15.7
2022-09-30T00:35:23.791Z,14.7
2022-09-30T00:36:24.409Z,15.5
2022-09-30T00:37:25.003Z,14.7
2022-09-30T00:38:25.596Z,14.9
2022-09-30T00:39:26.239Z,13.9
2022-09-30T00:40:26.807Z,15.1
2022-09-30T00:41:27.424Z,15.7
2022-09-30T00:42:28.018Z,16.6
2022-09-30T00:43:28.616Z,14.4
2022-09-30T00:44:29.211Z,15.2
2022-09-30T00:45:29.809Z,15.8
2022-09-30T00:46:30.482Z,15.0
2022-09-30T00:47:31.067Z,14.7
2022-09-30T00:48:31.662Z,15.5
2022-09-30T00:49:32.257Z,14.5
2022-09-30T00:50:32.851Z,15.0
2022-09-30T00:51:33.466Z,15.4
2022-09-30T00:52:34.061Z,15.0
2022-09-30T00:53:34.657Z,15.6
2022-09-30T00:54:35.251Z,16.4
2022-09-30T00:55:35.847Z,15.3
2022-09-30T00:56:36.439Z,16.0
2022-09-30T00:57:37.035Z,15.3
2022-09-30T00:58:37.648Z,15.8
2022-09-30T00:59:38.249Z,15.1
2022-09-30T01:00:38.881Z,14.7
2022-09-30T01:01:39.466Z,15.4
2022-09-30T01:02:40.051Z,15.2
2022-09-30T01:03:40.645Z,15.2
2022-09-30T01:04:41.240Z,14.8
2022-09-30T01:05:41.834Z,15.2
2022-09-30T01:06:42.430Z,15.5
2022-09-30T01:07:43.026Z,15.0
2022-09-30T01:08:43.622Z,15.3
2022-09-30T01:09:44.276Z,15.8
2022-09-30T01:10:44.838Z,15.2
2022-09-30T01:11:45.434Z,14.0
2022-09-30T01:12:46.030Z,15.3
2022-09-30T01:13:46.627Z,15.4
2022-09-30T01:14:47.222Z,15.6
2022-09-30T01:15:47.864Z,15.6
2022-09-30T01:16:48.435Z,16.3
2022-09-30T01:17:49.031Z,15.8
2022-09-30T01:18:49.661Z,16.4
2022-09-30T01:19:50.243Z,17.0
2022-09-30T01:20:50.838Z,17.3
2022-09-30T01:21:51.433Z,17.4
2022-09-30T01:22:52.028Z,16.6
2022-09-30T01:23:52.625Z,17.5
2022-09-30T01:24:53.221Z,17.1
2022-09-30T01:25:53.856Z,16.8
2022-09-30T01:26:54.417Z,16.6
2022-09-30T01:27:55.010Z,17.4
2022-09-30T01:28:55.602Z,17.7
2022-09-30T01:29:56.197Z,17.7
2022-09-30T01:30:56.790Z,17.8
2022-09-30T01:31:57.406Z,19.3
2022-09-30T01:32:58.022Z,18.7
2022-09-30T01:33:58.616Z,19.7
2022-09-30T01:34:59.211Z,18.7
2022-09-30T01:35:59.825Z,18.9
2022-09-30T01:37:00.418Z,18.2
2022-09-30T01:38:01.016Z,17.2
2022-09-30T01:39:01.610Z,19.2
2022-09-30T01:40:02.208Z,18.9
2022-09-30T01:41:02.803Z,19.6
2022-09-30T01:42:03.398Z,19.8
2022-09-30T01:43:03.990Z,20.6
2022-09-30T01:44:04.585Z,20.5
2022-09-30T01:45:05.180Z,20.8
2022-09-30T01:46:05.776Z,21.0
2022-09-30T01:47:06.440Z,20.8
2022-09-30T01:48:06.969Z,21.4
2022-09-30T01:49:07.564Z,21.6
2022-09-30T01:50:08.161Z,21.6
2022-09-30T01:51:08.756Z,22.2
2022-09-30T01:52:09.351Z,21.2
2022-09-30T01:53:09.946Z,20.9
2022-09-30T01:54:10.542Z,21.4
2022-09-30T01:55:11.134Z,23.1
2022-09-30T01:56:11.732Z,22.0
2022-09-30T01:57:12.326Z,22.2
2022-09-30T01:58:12.923Z,21.1
2022-09-30T01:59:13.563Z,23.2
2022-09-30T02:00:14.116Z,21.9
2022-09-30T02:01:14.779Z,22.1
2022-09-30T02:02:15.457Z,23.1
2022-09-30T02:03:16.011Z,22.3
2022-09-30T02:04:16.606Z,22.5
2022-09-30T02:05:17.199Z,21.6
2022-09-30T02:06:17.797Z,22.1
2022-09-30T02:07:18.390Z,21.5
2022-09-30T02:08:18.987Z,21.2
2022-09-30T02:09:19.709Z,21.3
2022-09-30T02:10:20.192Z,22.3
2022-09-30T02:11:20.787Z,21.3
2022-09-30T02:12:21.383Z,21.7
2022-09-30T02:13:21.977Z,20.9
2022-09-30T02:14:22.576Z,21.9
2022-09-30T02:15:23.172Z,20.3
2022-09-30T02:16:23.786Z,20.8
2022-09-30T02:17:24.364Z,21.7
2022-09-30T02:18:24.962Z,22.4
2022-09-30T02:19:25.557Z,21.8
2022-09-30T02:20:26.155Z,20.8
2022-09-30T02:21:26.749Z,21.5
2022-09-30T02:22:27.343Z,21.3
2022-09-30T02:23:27.937Z,20.3
2022-09-30T02:24:28.533Z,22.0
2022-09-30T02:25:29.134Z,22.1
2022-09-30T02:26:29.722Z,21.6
2022-09-30T02:27:30.323Z,20.4
2022-09-30T02:28:30.938Z,20.5
2022-09-30T02:29:31.537Z,20.2
2022-09-30T02:30:32.148Z,19.7
2022-09-30T02:31:32.801Z,20.3
2022-09-30T02:32:33.344Z,19.7
2022-09-30T02:33:33.935Z,19.6
2022-09-30T02:34:34.550Z,19.0
2022-09-30T02:35:35.149Z,19.7
2022-09-30T02:36:35.743Z,19.3
2022-09-30T02:37:36.339Z,20.2
2022-09-30T02:38:36.935Z,19.7
2022-09-30T02:39:37.532Z,20.6
2022-09-30T02:40:38.131Z,19.8
2022-09-30T02:41:38.727Z,18.0
2022-09-30T02:42:39.344Z,20.0
2022-09-30T02:43:39.939Z,19.8
2022-09-30T02:44:40.534Z,20.3
2022-09-30T02:45:41.132Z,19.7
2022-09-30T02:46:41.757Z,19.7
2022-09-30T02:47:42.322Z,20.2
2022-09-30T02:48:42.916Z,19.3
2022-09-30T02:49:43.515Z,21.0
2022-09-30T02:50:44.108Z,20.1
2022-09-30T02:51:44.705Z,20.7
2022-09-30T02:52:45.301Z,20.5
2022-09-30T02:53:45.898Z,20.6
2022-09-30T02:54:46.492Z,21.0
2022-09-30T02:55:47.090Z,21.0
2022-09-30T02:56:47.686Z,20.2
2022-09-30T02:57:48.281Z,19.7
2022-09-30T02:58:48.874Z,21.7
2022-09-30T02:59:49.470Z,21.4
2022-09-30T03:00:50.137Z,20.6
2022-09-30T03:01:50.809Z,20.6
2022-09-30T03:02:51.385Z,20.9
2022-09-30T03:03:52.000Z,21.3
2022-09-30T03:04:52.596Z,21.6
2022-09-30T03:05:53.193Z,22.0
2022-09-30T03:06:53.790Z,22.2
2022-09-30T03:07:54.382Z,22.5
2022-09-30T03:08:54.976Z,21.2
2022-09-30T03:09:55.572Z,21.7
2022-09-30T03:10:56.166Z,21.3
2022-09-30T03:11:56.763Z,21.0
2022-09-30T03:12:57.357Z,21.6
2022-09-30T03:13:57.955Z,21.4
2022-09-30T03:14:58.545Z,22.3
2022-09-30T03:15:59.161Z,23.2
2022-09-30T03:16:59.754Z,22.7
2022-09-30T03:18:00.351Z,23.3
2022-09-30T03:19:00.946Z,23.0
2022-09-30T03:20:01.542Z,23.0
2022-09-30T03:21:02.141Z,22.3
2022-09-30T03:22:02.734Z,22.6
2022-09-30T03:23:03.331Z,23.4
2022-09-30T03:24:03.924Z,23.7
2022-09-30T03:25:04.537Z,23.1
2022-09-30T03:26:05.121Z,23.7
2022-09-30T03:27:05.715Z,24.8
2022-09-30T03:28:06.306Z,23.5
2022-09-30T03:29:06.898Z,24.6
2022-09-30T03:30:07.495Z,25.4
2022-09-30T03:31:08.143Z,23.6
2022-09-30T03:32:08.684Z,24.9
2022-09-30T03:33:09.280Z,24.8
2022-09-30T03:34:09.873Z,24.9
2022-09-30T03:35:10.467Z,24.6
2022-09-30T03:36:11.063Z,24.3
2022-09-30T03:37:11.660Z,25.5
2022-09-30T03:38:12.255Z,24.1
2022-09-30T03:39:12.851Z,25.1
2022-09-30T03:40:13.445Z,24.6
2022-09-30T03:41:14.039Z,25.0
2022-09-30T03:42:17.252Z,24.8
2022-09-30T03:43:16.221Z,25.1
2022-09-30T03:44:16.818Z,26.6
2022-09-30T03:45:17.411Z,25.3
2022-09-30T03:46:18.048Z,26.0
2022-09-30T03:47:18.618Z,27.0
2022-09-30T03:48:19.214Z,27.5
2022-09-30T03:49:19.848Z,27.7
2022-09-30T03:50:20.438Z,26.4
2022-09-30T03:51:21.021Z,28.0
2022-09-30T03:52:21.618Z,27.2
2022-09-30T03:53:22.213Z,29.0
2022-09-30T03:54:22.809Z,27.4
2022-09-30T03:55:23.402Z,29.1
2022-09-30T03:56:23.998Z,28.7
2022-09-30T03:57:24.594Z,29.5
2022-09-30T03:58:25.192Z,29.2
2022-09-30T03:59:25.805Z,28.7
2022-09-30T04:00:26.453Z,28.6
2022-09-30T04:01:27.009Z,28.8
2022-09-30T04:02:27.676Z,30.2
2022-09-30T04:03:28.217Z,26.1
2022-09-30T04:04:28.810Z,27.5
2022-09-30T04:05:29.404Z,28.0
2022-09-30T04:06:30.000Z,27.4
2022-09-30T04:07:30.595Z,27.9
2022-09-30T04:08:33.895Z,26.9
2022-09-30T04:09:32.827Z,27.3
2022-09-30T04:10:33.415Z,28.9
2022-09-30T04:11:34.010Z,28.6
2022-09-30T04:12:34.605Z,28.1
2022-09-30T04:13:35.201Z,28.1
2022-09-30T04:14:35.798Z,28.0
2022-09-30T04:15:36.417Z,29.6
2022-09-30T04:16:37.050Z,28.5
2022-09-30T04:17:37.623Z,28.7
2022-09-30T04:18:38.220Z,28.2
2022-09-30T04:19:38.809Z,28.7
2022-09-30T04:20:39.430Z,29.7
2022-09-30T04:21:40.021Z,29.6
2022-09-30T04:22:40.636Z,28.3
2022-09-30T04:23:41.232Z,28.3
2022-09-30T04:24:41.829Z,28.1
2022-09-30T04:25:42.425Z,28.8
2022-09-30T04:26:43.021Z,28.9
2022-09-30T04:27:43.614Z,28.9
2022-09-30T04:28:44.209Z,28.0
2022-09-30T04:29:44.807Z,28.6
2022-09-30T04:30:45.400Z,28.5
2022-09-30T04:31:46.116Z,27.9
2022-09-30T04:32:46.670Z,28.0
2022-09-30T04:33:47.266Z,28.2
2022-09-30T04:34:47.858Z,28.4
2022-09-30T04:35:48.454Z,28.6
2022-09-30T04:36:49.051Z,28.9
2022-09-30T04:37:49.664Z,27.7
2022-09-30T04:38:50.263Z,29.5
2022-09-30T04:39:50.858Z,26.9
2022-09-30T04:40:51.454Z,28.5
2022-09-30T04:41:52.049Z,28.4
2022-09-30T04:42:52.645Z,28.4
2022-09-30T04:43:53.237Z,27.2
2022-09-30T04:44:53.832Z,28.3
2022-09-30T04:45:54.535Z,29.6
2022-09-30T04:46:55.111Z,29.7
2022-09-30T04:47:55.706Z,33.8
2022-09-30T04:48:56.301Z,31.5
2022-09-30T04:49:56.897Z,30.4
2022-09-30T04:50:57.493Z,30.1
2022-09-30T04:51:58.088Z,30.5
2022-09-30T04:52:58.683Z,31.4
2022-09-30T04:53:59.278Z,31.5
2022-09-30T04:54:59.873Z,30.7
2022-09-30T04:56:00.489Z,32.1
2022-09-30T04:57:01.084Z,31.2
2022-09-30T04:58:01.680Z,30.3
2022-09-30T04:59:02.277Z,30.0
2022-09-30T05:00:02.875Z,32.3
2022-09-30T05:01:03.529Z,31.2
2022-09-30T05:02:04.157Z,32.3
2022-09-30T05:03:04.711Z,32.1
2022-09-30T05:04:05.308Z,31.8
2022-09-30T05:05:05.906Z,33.8
2022-09-30T05:06:06.504Z,32.3
2022-09-30T05:07:07.100Z,32.8
2022-09-30T05:08:07.697Z,31.2
2022-09-30T05:09:08.346Z,30.9
2022-09-30T05:10:08.937Z,30.6
2022-09-30T05:11:09.546Z,30.3
2022-09-30T05:12:10.127Z,30.6
2022-09-30T05:13:10.745Z,30.6
2022-09-30T05:14:11.342Z,31.1
2022-09-30T05:15:11.941Z,30.4
2022-09-30T05:16:12.570Z,31.3
2022-09-30T05:17:13.135Z,30.1
2022-09-30T05:18:13.733Z,30.4
2022-09-30T05:19:14.433Z,29.1
2022-09-30T05:20:18.921Z,31.0
2022-09-30T05:21:15.614Z,31.7
2022-09-30T05:22:16.215Z,32.4
2022-09-30T05:23:16.816Z,31.0
2022-09-30T05:24:17.415Z,30.5
2022-09-30T05:25:18.014Z,31.4
2022-09-30T05:26:18.610Z,31.0
2022-09-30T05:27:19.211Z,30.8
2022-09-30T05:28:19.808Z,31.4
2022-09-30T05:29:20.465Z,30.6
2022-09-30T05:30:21.029Z,29.6
2022-09-30T05:31:21.646Z,31.3
2022-09-30T05:32:22.226Z,31.1
2022-09-30T05:33:22.827Z,30.1
2022-09-30T05:34:23.427Z,30.4
2022-09-30T05:35:24.031Z,29.6
2022-09-30T05:36:24.627Z,30.1
2022-09-30T05:37:25.233Z,29.2
2022-09-30T05:38:25.829Z,31.0
2022-09-30T05:39:26.426Z,28.5
2022-09-30T05:40:27.025Z,28.9
2022-09-30T05:41:27.625Z,28.4
2022-09-30T05:42:28.228Z,28.6
2022-09-30T05:43:28.825Z,28.8
2022-09-30T05:44:29.424Z,29.5
2022-09-30T05:45:30.033Z,29.3
2022-09-30T05:46:30.642Z,28.8
2022-09-30T05:47:31.227Z,30.2
2022-09-30T05:48:31.826Z,28.8
2022-09-30T05:49:32.427Z,29.3
2022-09-30T05:50:33.030Z,28.2
2022-09-30T05:51:33.634Z,29.3
2022-09-30T05:52:34.231Z,27.4
2022-09-30T05:53:34.842Z,29.5
2022-09-30T05:54:35.432Z,29.6
2022-09-30T05:55:39.205Z,28.2
2022-09-30T05:56:37.627Z,29.6
2022-09-30T05:57:38.226Z,29.3
2022-09-30T05:58:38.825Z,30.0
2022-09-30T05:59:39.426Z,29.6
2022-09-30T06:00:40.024Z,26.3
2022-09-30T06:01:40.679Z,22.1
2022-09-30T06:02:41.288Z,24.8
2022-09-30T06:03:41.896Z,23.3
2022-09-30T06:04:42.494Z,23.1
2022-09-30T06:05:43.093Z,22.6
2022-09-30T06:06:43.752Z,23.3
2022-09-30T06:07:44.312Z,23.5
2022-09-30T06:08:44.934Z,23.5
2022-09-30T06:09:45.603Z,23.4
2022-09-30T06:10:46.167Z,24.6
2022-09-30T06:11:46.766Z,23.8
2022-09-30T06:12:47.366Z,22.6
2022-09-30T06:13:47.969Z,21.3
2022-09-30T06:14:48.570Z,22.3
2022-09-30T06:15:49.188Z,21.8
2022-09-30T06:16:49.865Z,22.4
2022-09-30T06:17:50.437Z,23.5
2022-09-30T06:18:51.037Z,22.4
2022-09-30T06:19:51.642Z,22.3
2022-09-30T06:20:52.261Z,21.2
2022-09-30T06:21:52.897Z,22.2
2022-09-30T06:22:53.480Z,24.5
2022-09-30T06:23:54.100Z,24.2
2022-09-30T06:24:55.436Z,22.9
2022-09-30T06:25:56.102Z,22.7
2022-09-30T06:26:56.701Z,20.2
2022-09-30T06:27:57.300Z,19.4
2022-09-30T06:28:57.901Z,19.3
2022-09-30T06:29:58.516Z,19.7
2022-09-30T06:30:59.120Z,17.0
2022-09-30T06:31:59.766Z,17.6
2022-09-30T06:33:00.331Z,16.9
2022-09-30T06:34:00.931Z,15.9
2022-09-30T06:35:01.532Z,15.0
2022-09-30T06:36:02.149Z,14.7
2022-09-30T06:37:02.850Z,13.2
2022-09-30T06:38:03.382Z,11.4
2022-09-30T06:39:03.980Z,11.8
2022-09-30T06:40:04.580Z,10.1
2022-09-30T06:41:05.195Z,9.8
2022-09-30T06:42:05.776Z,10.0
2022-09-30T06:43:06.372Z,9.3
2022-09-30T06:44:06.971Z,9.4
2022-09-30T06:45:07.571Z,9.4
2022-09-30T06:46:15.220Z,9.4
2022-09-30T06:47:19.327Z,9.3
2022-09-30T06:48:11.387Z,9.4
2022-09-30T06:49:13.920Z,9.4
2022-09-30T06:50:23.755Z,8.8
2022-09-30T06:51:15.130Z,8.4
2022-09-30T06:52:15.806Z,9.0
2022-09-30T06:53:16.341Z,8.7
2022-09-30T06:54:16.947Z,7.6
2022-09-30T06:55:17.541Z,7.6
2022-09-30T06:56:18.140Z,7.6
2022-09-30T06:57:18.737Z,7.6
2022-09-30T06:58:19.337Z,7.3
2022-09-30T06:59:20.014Z,7.4
2022-09-30T07:00:20.576Z,7.7
2022-09-30T07:01:21.252Z,7.2
2022-09-30T07:02:21.872Z,7.7
2022-09-30T07:03:22.496Z,7.1
2022-09-30T07:04:23.094Z,7.3
2022-09-30T07:05:23.699Z,7.3
2022-09-30T07:06:24.292Z,6.8
2022-09-30T07:07:24.923Z,7.4
2022-09-30T07:08:25.530Z,6.8
2022-09-30T07:09:26.375Z,6.9
2022-09-30T07:10:27.025Z,7.2
2022-09-30T07:11:27.625Z,6.8
2022-09-30T07:12:28.223Z,6.9
2022-09-30T07:13:28.823Z,6.6
2022-09-30T07:14:29.423Z,7.2
2022-09-30T07:15:30.043Z,6.3
2022-09-30T07:16:30.639Z,5.7
2022-09-30T07:17:31.225Z,6.9
2022-09-30T07:18:31.824Z,6.2
2022-09-30T07:19:32.423Z,6.1
2022-09-30T07:20:33.023Z,6.2
2022-09-30T07:21:33.622Z,6.7
2022-09-30T07:22:34.220Z,6.6
2022-09-30T07:23:34.819Z,6.2
2022-09-30T07:24:35.420Z,6.0
2022-09-30T07:25:36.022Z,6.2
2022-09-30T07:26:36.621Z,5.8
2022-09-30T07:27:37.270Z,6.0
2022-09-30T07:28:37.819Z,5.7
2022-09-30T07:30:03.915Z,6.5
2022-09-30T07:30:40.009Z,6.3
2022-09-30T07:31:40.711Z,5.5
2022-09-30T07:32:41.289Z,5.7
2022-09-30T07:33:41.910Z,4.9
2022-09-30T07:34:42.515Z,6.2
2022-09-30T07:35:43.111Z,5.9
2022-09-30T07:36:43.710Z,6.5
2022-09-30T07:37:44.310Z,6.8
2022-09-30T07:38:44.907Z,6.8
2022-09-30T07:39:45.507Z,6.3
2022-09-30T07:40:46.105Z,7.4
2022-09-30T07:41:46.705Z,7.3
2022-09-30T07:42:47.303Z,6.8
2022-09-30T07:43:47.924Z,7.2
2022-09-30T07:44:48.502Z,7.3
2022-09-30T07:45:49.217Z,7.0
2022-09-30T07:46:49.717Z,8.4
2022-09-30T07:47:53.630Z,8.1
2022-09-30T07:48:50.930Z,8.6
2022-09-30T07:49:51.529Z,7.8
2022-09-30T07:50:52.130Z,8.9
2022-09-30T07:51:52.726Z,8.1
2022-09-30T07:52:53.326Z,8.2
2022-09-30T07:53:53.928Z,8.6
2022-09-30T07:54:54.524Z,8.5
2022-09-30T07:55:55.127Z,8.9
2022-09-30T07:57:09.874Z,8.7
2022-09-30T07:57:57.341Z,8.7
2022-09-30T07:58:57.940Z,8.9
2022-09-30T07:59:58.544Z,8.9
2022-09-30T08:00:59.169Z,8.6
2022-09-30T08:01:59.798Z,8.3
2022-09-30T08:03:00.359Z,9.0
2022-09-30T08:04:00.959Z,8.5
2022-09-30T08:05:01.558Z,8.3
2022-09-30T08:06:02.159Z,9.5
2022-09-30T08:07:02.782Z,8.7
2022-09-30T08:08:03.383Z,8.6
2022-09-30T08:09:04.015Z,9.5
2022-09-30T08:10:04.599Z,9.0
2022-09-30T08:11:05.220Z,8.4
2022-09-30T08:12:05.830Z,8.9
2022-09-30T08:13:06.522Z,9.2
2022-09-30T08:14:07.070Z,8.4
2022-09-30T08:15:07.663Z,8.7
2022-09-30T08:16:08.330Z,8.3
2022-09-30T08:17:08.896Z,9.0
2022-09-30T08:18:09.498Z,8.4
2022-09-30T08:19:10.117Z,8.4
2022-09-30T08:20:13.348Z,8.7
2022-09-30T08:21:11.335Z,8.5
2022-09-30T08:22:11.941Z,8.9
2022-09-30T08:23:12.537Z,8.8
2022-09-30T08:24:13.157Z,8.3
2022-09-30T08:25:13.759Z,7.6
2022-09-30T08:26:14.359Z,8.3
2022-09-30T08:27:15.024Z,7.4
2022-09-30T08:28:15.580Z,8.6
2022-09-30T08:29:20.320Z,8.0
2022-09-30T08:30:17.651Z,8.6
2022-09-30T08:31:18.285Z,8.2
2022-09-30T08:32:18.928Z,8.0
2022-09-30T08:33:19.548Z,8.2
2022-09-30T08:34:20.150Z,7.8
2022-09-30T08:35:20.745Z,8.5
2022-09-30T08:36:21.350Z,7.9
2022-09-30T08:37:21.949Z,8.5
2022-09-30T08:38:22.569Z,8.4
2022-09-30T08:39:23.171Z,7.8
2022-09-30T08:40:23.797Z,7.3
2022-09-30T08:41:24.412Z,7.9
2022-09-30T08:42:36.628Z,7.8
2022-09-30T08:43:26.480Z,7.6
2022-09-30T08:44:27.081Z,8.1
2022-09-30T08:45:27.696Z,7.9
2022-09-30T08:46:28.331Z,8.3
2022-09-30T08:47:28.929Z,7.6
2022-09-30T08:48:29.520Z,7.5
2022-09-30T08:49:30.142Z,8.2
2022-09-30T08:50:30.767Z,7.3
2022-09-30T08:51:31.367Z,8.9
2022-09-30T08:52:47.973Z,9.0
2022-09-30T08:53:32.583Z,8.6
2022-09-30T08:54:37.814Z,8.5
2022-09-30T08:55:34.776Z,7.6
2022-09-30T08:56:35.376Z,7.5
2022-09-30T08:57:35.977Z,8.2
2022-09-30T08:58:36.578Z,8.6
2022-09-30T08:59:37.178Z,7.8
2022-09-30T09:00:37.779Z,7.5
2022-09-30T09:01:38.465Z,8.4
2022-09-30T09:02:39.057Z,7.6
2022-09-30T09:03:39.612Z,8.4
2022-09-30T09:04:40.216Z,7.5
2022-09-30T09:05:40.812Z,7.9
2022-09-30T09:06:41.414Z,7.6
2022-09-30T09:07:42.015Z,7.2
2022-09-30T09:08:42.615Z,8.0
2022-09-30T09:09:43.213Z,7.4
2022-09-30T09:10:43.814Z,7.0
2022-09-30T09:11:44.413Z,7.5
2022-09-30T09:12:45.017Z,7.2
2022-09-30T09:13:45.616Z,7.8
2022-09-30T09:14:46.218Z,7.5
2022-09-30T09:15:46.818Z,7.6
2022-09-30T09:16:47.543Z,7.8
2022-09-30T09:18:04.516Z,6.8
2022-09-30T09:18:49.826Z,7.1
2022-09-30T09:19:50.423Z,7.4
2022-09-30T09:20:51.025Z,7.7
2022-09-30T09:21:51.628Z,7.1
2022-09-30T09:22:52.225Z,7.3
2022-09-30T09:23:52.822Z,7.3
2022-09-30T09:24:53.443Z,7.2
2022-09-30T09:25:54.038Z,7.4
2022-09-30T09:26:54.639Z,7.5
2022-09-30T09:27:55.285Z,6.4
2022-09-30T09:28:55.840Z,7.0
2022-09-30T09:29:56.442Z,7.0
2022-09-30T09:30:57.041Z,6.8
2022-09-30T09:31:57.685Z,7.2
2022-09-30T09:32:58.260Z,7.1
2022-09-30T09:33:58.862Z,6.7
2022-09-30T09:34:59.461Z,7.1
2022-09-30T09:36:00.091Z,7.3
2022-09-30T09:37:00.682Z,6.9
2022-09-30T09:38:01.282Z,6.9
2022-09-30T09:39:01.885Z,7.0
2022-09-30T09:40:04.410Z,6.0
2022-09-30T09:41:04.080Z,6.4
2022-09-30T09:42:04.699Z,7.2
2022-09-30T09:43:05.304Z,6.7
2022-09-30T09:44:05.903Z,6.3
2022-09-30T09:45:06.505Z,6.6
2022-09-30T09:46:07.140Z,6.0
2022-09-30T09:47:07.730Z,6.5
2022-09-30T09:48:08.329Z,7.0
2022-09-30T09:49:08.933Z,6.2
2022-09-30T09:50:09.533Z,5.9
2022-09-30T09:51:10.133Z,5.9
2022-09-30T09:52:10.753Z,5.9
2022-09-30T09:53:11.354Z,5.8
2022-09-30T09:54:11.954Z,6.4
2022-09-30T09:55:12.564Z,6.4
2022-09-30T09:56:13.179Z,6.9
2022-09-30T09:57:13.779Z,7.0
2022-09-30T09:58:14.379Z,6.3
2022-09-30T09:59:16.854Z,7.7
2022-09-30T10:00:16.587Z,6.8
2022-09-30T10:01:17.211Z,6.7
2022-09-30T10:02:17.838Z,6.4
2022-09-30T10:03:18.388Z,6.5
2022-09-30T10:04:19.077Z,6.4
2022-09-30T10:05:19.694Z,6.2
2022-09-30T10:06:20.292Z,5.9
2022-09-30T10:07:20.923Z,5.9
2022-09-30T10:08:21.546Z,5.9
2022-09-30T10:09:22.148Z,5.9
2022-09-30T10:10:24.313Z,6.8
2022-09-30T10:11:24.344Z,6.7
2022-09-30T10:12:24.943Z,6.2
2022-09-30T10:13:25.545Z,6.2
2022-09-30T10:14:26.147Z,6.5
2022-09-30T10:15:26.768Z,6.5
2022-09-30T10:16:27.369Z,6.3
2022-09-30T10:17:27.972Z,6.4
2022-09-30T10:18:28.572Z,7.4
2022-09-30T10:19:29.174Z,6.5
2022-09-30T10:20:29.775Z,6.9
2022-09-30T10:21:30.378Z,6.0
2022-09-30T10:22:30.979Z,6.6
2022-09-30T10:23:31.583Z,6.1
2022-09-30T10:24:32.180Z,6.6
2022-09-30T10:25:32.781Z,6.4
2022-09-30T10:26:33.382Z,5.6
2022-09-30T10:27:33.984Z,5.6
2022-09-30T10:28:34.664Z,6.7
2022-09-30T10:29:35.256Z,6.4
2022-09-30T10:30:35.854Z,6.2
2022-09-30T10:31:36.530Z,6.5
2022-09-30T10:32:37.094Z,6.5
2022-09-30T10:33:37.719Z,7.5
2022-09-30T10:34:38.317Z,6.7
2022-09-30T10:35:38.920Z,6.8
2022-09-30T10:36:39.542Z,6.9
2022-09-30T10:37:40.145Z,7.3
2022-09-30T10:39:41.356Z,7.1
2022-09-30T10:40:41.978Z,7.0
2022-09-30T10:41:42.579Z,7.5
2022-09-30T10:42:43.178Z,7.7
2022-09-30T10:43:43.778Z,7.1
2022-09-30T10:44:44.379Z,7.3
2022-09-30T10:45:52.592Z,7.1
2022-09-30T10:46:45.684Z,7.6
2022-09-30T10:47:46.240Z,6.7
2022-09-30T10:48:46.840Z,7.4
2022-09-30T10:49:47.444Z,7.7
2022-09-30T10:50:48.043Z,7.8
2022-09-30T10:51:48.644Z,8.2
2022-09-30T10:52:49.246Z,7.8
2022-09-30T10:53:49.847Z,7.1
2022-09-30T10:54:50.451Z,6.7
2022-09-30T10:55:51.072Z,7.0
2022-09-30T10:56:51.673Z,6.4
2022-09-30T10:57:52.276Z,7.6
2022-09-30T10:58:52.873Z,7.2
2022-09-30T10:59:53.476Z,7.3
2022-09-30T11:00:54.119Z,7.4
2022-09-30T11:01:57.383Z,7.0
2022-09-30T11:02:55.368Z,7.3
2022-09-30T11:03:56.048Z,6.7
2022-09-30T11:04:56.633Z,6.7
2022-09-30T11:05:57.234Z,6.5
2022-09-30T11:06:57.856Z,5.5
2022-09-30T11:07:58.457Z,7.4
2022-09-30T11:08:59.058Z,6.7
2022-09-30T11:09:59.659Z,7.5
2022-09-30T11:11:00.262Z,6.6
2022-09-30T11:12:00.861Z,6.5
2022-09-30T11:13:01.468Z,6.7
2022-09-30T11:14:02.067Z,6.7
2022-09-30T11:15:02.670Z,6.4
2022-09-30T11:16:03.301Z,5.6
2022-09-30T11:17:03.872Z,5.9
2022-09-30T11:18:04.475Z,5.3
2022-09-30T11:19:05.077Z,5.5
2022-09-30T11:20:05.686Z,5.3
2022-09-30T11:21:06.302Z,4.9
2022-09-30T11:22:06.902Z,5.6
2022-09-30T11:23:07.502Z,5.1
2022-09-30T11:24:08.105Z,5.0
2022-09-30T11:25:11.187Z,5.4
2022-09-30T11:26:10.298Z,5.0
2022-09-30T11:27:10.900Z,5.4
2022-09-30T11:28:11.569Z,5.1
2022-09-30T11:29:12.114Z,5.5
2022-09-30T11:30:12.716Z,5.5
2022-09-30T11:31:13.361Z,5.2
2022-09-30T11:32:13.932Z,4.9
2022-09-30T11:33:14.556Z,4.2
2022-09-30T11:34:15.159Z,4.5
2022-09-30T11:35:15.780Z,4.7
2022-09-30T11:36:16.384Z,4.9
2022-09-30T11:37:16.988Z,4.2
2022-09-30T11:38:17.582Z,4.1
2022-09-30T11:39:18.216Z,4.3
2022-09-30T11:40:18.785Z,4.4
2022-09-30T11:41:19.386Z,4.3
2022-09-30T11:42:19.986Z,4.1
2022-09-30T11:43:20.588Z,4.8
2022-09-30T11:44:21.186Z,4.2
2022-09-30T11:45:21.789Z,3.9
2022-09-30T11:46:22.388Z,4.0
2022-09-30T11:47:22.990Z,4.7
2022-09-30T11:48:23.612Z,4.5
2022-09-30T11:49:24.212Z,4.5
2022-09-30T11:50:24.813Z,4.4
2022-09-30T11:51:25.415Z,4.8
2022-09-30T11:52:26.016Z,5.2
2022-09-30T11:53:26.620Z,4.9
2022-09-30T11:54:27.242Z,4.5
2022-09-30T11:55:27.855Z,3.8
2022-09-30T11:56:28.670Z,5.1
2022-09-30T11:57:29.062Z,5.0
2022-09-30T11:58:41.124Z,4.1
2022-09-30T11:59:31.281Z,4.3
2022-09-30T12:00:31.883Z,4.6
2022-09-30T12:01:32.506Z,4.5
2022-09-30T12:02:33.133Z,5.0
2022-09-30T12:03:33.760Z,4.7
2022-09-30T12:04:34.348Z,5.1
2022-09-30T12:05:34.951Z,4.5
2022-09-30T12:06:35.560Z,4.3
2022-09-30T12:07:36.154Z,4.5
2022-09-30T12:08:36.753Z,5.0
2022-09-30T12:09:37.356Z,5.2
2022-09-30T12:10:37.956Z,4.3
2022-09-30T12:11:38.559Z,4.6
2022-09-30T12:12:39.160Z,3.9
2022-09-30T12:13:39.767Z,5.0
2022-09-30T12:14:40.362Z,4.9
2022-09-30T12:15:40.963Z,4.1
2022-09-30T12:16:41.622Z,4.1
2022-09-30T12:17:42.202Z,4.1
2022-09-30T12:18:42.804Z,4.7
2022-09-30T12:19:43.408Z,4.9
2022-09-30T12:20:44.007Z,4.5
2022-09-30T12:21:44.612Z,4.8
2022-09-30T12:22:45.212Z,5.1
2022-09-30T12:23:45.813Z,4.8
2022-09-30T12:24:46.414Z,4.7
2022-09-30T12:25:47.017Z,4.7
2022-09-30T12:26:47.619Z,4.5
2022-09-30T12:27:48.284Z,4.2
2022-09-30T12:28:48.861Z,4.5
2022-09-30T12:29:49.463Z,4.4
2022-09-30T12:30:50.063Z,4.4
2022-09-30T12:31:50.726Z,4.4
2022-09-30T12:32:51.281Z,4.1
2022-09-30T12:33:51.884Z,4.8
2022-09-30T12:34:52.486Z,5.1
2022-09-30T12:35:53.086Z,4.6
2022-09-30T12:36:53.687Z,4.9
2022-09-30T12:37:54.293Z,5.0
2022-09-30T12:38:54.888Z,4.8
2022-09-30T12:39:55.490Z,4.8
2022-09-30T12:40:56.092Z,6.5
2022-09-30T12:41:56.696Z,4.8
2022-09-30T12:42:57.293Z,4.2
2022-09-30T12:43:57.905Z,5.0
2022-09-30T12:44:58.495Z,4.3
2022-09-30T12:45:59.185Z,4.5
2022-09-30T12:46:59.761Z,4.6
2022-09-30T12:48:00.374Z,4.5
2022-09-30T12:49:00.987Z,4.2
2022-09-30T12:50:01.592Z,4.4
2022-09-30T12:51:02.189Z,4.1
2022-09-30T12:52:02.793Z,4.3
2022-09-30T12:53:03.393Z,6.1
2022-09-30T12:54:03.993Z,4.8
2022-09-30T12:55:04.593Z,4.7
2022-09-30T12:56:05.286Z,4.6
2022-09-30T12:57:05.814Z,4.9
2022-09-30T12:58:06.418Z,4.4
2022-09-30T12:59:07.020Z,4.6
2022-09-30T13:00:07.620Z,4.6
2022-09-30T13:01:08.274Z,4.2
2022-09-30T13:02:08.935Z,4.4
2022-09-30T13:03:09.538Z,3.9
2022-09-30T13:04:10.181Z,4.5
2022-09-30T13:05:10.782Z,4.3
2022-09-30T13:06:11.398Z,3.8
2022-09-30T13:07:12.000Z,3.5
2022-09-30T13:08:12.620Z,3.9
2022-09-30T13:09:13.240Z,4.2
2022-09-30T13:10:13.843Z,4.2
2022-09-30T13:11:14.453Z,4.1
2022-09-30T13:12:15.046Z,4.4
2022-09-30T13:13:15.646Z,4.3
2022-09-30T13:14:16.247Z,3.7
2022-09-30T13:15:16.848Z,3.7
2022-09-30T13:16:17.485Z,3.9
2022-09-30T13:17:18.052Z,3.7
2022-09-30T13:18:18.656Z,4.1
2022-09-30T13:19:19.256Z,3.9
2022-09-30T13:20:19.855Z,3.4
2022-09-30T13:21:20.454Z,2.9
2022-09-30T13:22:21.079Z,3.3
2022-09-30T13:23:21.657Z,3.7
2022-09-30T13:24:22.259Z,3.2
2022-09-30T13:25:22.862Z,3.5
2022-09-30T13:26:23.461Z,3.2
2022-09-30T13:27:24.062Z,2.9
2022-09-30T13:28:24.747Z,2.8
2022-09-30T13:29:25.343Z,2.7
2022-09-30T13:30:27.379Z,2.9
2022-09-30T13:31:27.591Z,2.8
2022-09-30T13:32:28.167Z,3.0
2022-09-30T13:33:28.766Z,2.8
2022-09-30T13:34:29.371Z,2.6
2022-09-30T13:35:29.972Z,3.0
2022-09-30T13:36:30.806Z,2.5
2022-09-30T13:37:31.194Z,3.7
2022-09-30T13:38:31.793Z,3.2
2022-09-30T13:39:32.392Z,3.2
2022-09-30T13:41:00.328Z,2.9
2022-09-30T13:41:33.613Z,2.9